»·PEaware :: N184CF KBFL-KMHV

N184CF :: KBFL-KMHV

FLIGHT INFORMATION

Flight Status: Arrived
Operator: Privately registered:
United States
More flights under this callsign
Pilot: Arik P. (45269)
Aircraft: Unknown
(P28)
More flights by this aircraft type
Origin: KBFL Meadows
United States
Destination: KMHV Mojave
United States
More flights between these airports :: More routes between these airports
Route:
File this flight plan on PilotEdge
Remarks:
Altitude:
(Current/Filed)
9,500ft
Speed:
(Current/Filed)
100kts
Departed: 24-Oct-23 05:52 PM
Arrived: 24-Oct-23 06:50 PM
Distance/Time
Traveled:
50nm/0:58
Distance/Time
To Go:
Arrived

Flight Plot

Page will automatically refresh every two minutes.


Map Options




Map Legend


Flown Route
Filed Route
Departure Airport
Arrival Airport
Navaid (VOR, NDB)
Fix

Horizontal Profiles

Position Reports

Time Latitude Longitude Heading Altitude Ground
Speed
24-Oct-23 17:28 35.428358 -119.045097 80 480ft 0kts
24-Oct-23 17:29 35.428358 -119.045097 80 480ft 0kts
24-Oct-23 17:30 35.428358 -119.045097 80 480ft 0kts
24-Oct-23 17:31 35.428358 -119.045097 80 480ft 0kts
24-Oct-23 17:32 35.428358 -119.045097 80 480ft 0kts
24-Oct-23 17:33 35.428358 -119.045097 80 480ft 0kts
24-Oct-23 17:34 35.428358 -119.045097 80 480ft 0kts
24-Oct-23 17:35 35.428358 -119.045097 80 480ft 0kts
24-Oct-23 17:36 35.428358 -119.045097 80 480ft 0kts
24-Oct-23 17:37 35.428358 -119.045097 80 480ft 0kts
24-Oct-23 17:38 35.428358 -119.045097 80 480ft 0kts
24-Oct-23 17:39 35.428358 -119.045097 80 480ft 0kts
24-Oct-23 17:40 35.428358 -119.045097 80 480ft 0kts
24-Oct-23 17:41 35.428358 -119.045097 80 480ft 0kts
24-Oct-23 17:42 35.428359 -119.045091 80 480ft 1kts
24-Oct-23 17:43 35.425769 -119.044353 147 471ft 17kts
24-Oct-23 17:44 35.425485 -119.043826 329 471ft 0kts
24-Oct-23 17:45 35.425485 -119.043826 329 471ft 0kts
24-Oct-23 17:46 35.425485 -119.043826 329 471ft 0kts
24-Oct-23 17:47 35.425485 -119.043826 329 471ft 0kts
24-Oct-23 17:48 35.425338 -119.044489 266 472ft 3kts
24-Oct-23 17:49 35.425337 -119.044519 267 472ft 0kts
24-Oct-23 17:50 35.425352 -119.044886 273 472ft 13kts
24-Oct-23 17:51 35.430612 -119.052469 315 612ft 77kts
24-Oct-23 17:52 35.447149 -119.066802 3 1666ft 81kts
24-Oct-23 17:53 35.450902 -119.043278 93 2649ft 83kts
24-Oct-23 17:54 35.447822 -119.014054 97 3693ft 79kts
24-Oct-23 17:55 35.439598 -118.986631 117 4457ft 92kts
24-Oct-23 17:56 35.427516 -118.958705 114 5266ft 95kts
24-Oct-23 17:57 35.414661 -118.931069 116 6076ft 85kts
24-Oct-23 17:58 35.414830 -118.903783 110 6628ft 100kts
24-Oct-23 17:59 35.404916 -118.879890 101 7343ft 80kts
24-Oct-23 18:00 35.391373 -118.859551 159 8004ft 79kts
24-Oct-23 18:01 35.369464 -118.849122 153 8678ft 81kts
24-Oct-23 18:02 35.350369 -118.834755 146 9282ft 84kts
24-Oct-23 18:03 35.329306 -118.818615 147 9752ft 100kts
24-Oct-23 18:04 35.312113 -118.790253 139 9967ft 112kts
24-Oct-23 18:05 35.289363 -118.762924 133 9440ft 118kts
24-Oct-23 18:06 35.269671 -118.732874 120 9460ft 112kts
24-Oct-23 18:07 35.253185 -118.700488 113 9545ft 109kts
24-Oct-23 18:08 35.239565 -118.665728 116 9545ft 112kts
24-Oct-23 18:09 35.225497 -118.630953 115 9485ft 114kts
24-Oct-23 18:10 35.210681 -118.596212 119 9437ft 114kts
24-Oct-23 18:11 35.195872 -118.561992 119 9389ft 116kts
24-Oct-23 18:12 35.176914 -118.534907 148 9599ft 102kts
24-Oct-23 18:13 35.154555 -118.509804 113 9382ft 120kts
24-Oct-23 18:14 35.140330 -118.474588 120 9321ft 115kts
24-Oct-23 18:15 35.124533 -118.440248 117 9251ft 117kts
24-Oct-23 18:16 35.132547 -118.416287 334 8752ft 115kts
24-Oct-23 18:17 35.127590 -118.439043 159 7502ft 101kts
24-Oct-23 18:18 35.122126 -118.403812 89 7324ft 114kts
24-Oct-23 18:19 35.127009 -118.406767 183 7506ft 123kts
24-Oct-23 18:20 35.113155 -118.368525 104 7280ft 132kts
24-Oct-23 18:21 35.098262 -118.332897 140 7350ft 129kts
24-Oct-23 18:22 35.105637 -118.326491 237 7701ft 106kts
24-Oct-23 18:23 35.073866 -118.322467 189 7124ft 127kts
24-Oct-23 18:24 35.046298 -118.316222 76 5304ft 132kts
24-Oct-23 18:25 35.059861 -118.288371 31 5510ft 89kts
24-Oct-23 18:26 35.081625 -118.279797 355 6229ft 86kts
24-Oct-23 18:27 35.097348 -118.296097 347 6860ft 96kts
24-Oct-23 18:28 35.107212 -118.323667 294 6879ft 88kts
24-Oct-23 18:29 35.118437 -118.352316 294 6846ft 93kts
24-Oct-23 18:30 35.131731 -118.380888 287 6277ft 90kts
24-Oct-23 18:31 35.117281 -118.402478 219 5639ft 102kts
24-Oct-23 18:32 35.119685 -118.431039 307 5036ft 101kts
24-Oct-23 18:33 35.139918 -118.448660 11 5004ft 83kts
24-Oct-23 18:34 35.130607 -118.425963 145 5358ft 86kts
24-Oct-23 18:35 35.118248 -118.404416 124 5287ft 101kts
24-Oct-23 18:36 35.110206 -118.377886 108 5790ft 86kts
24-Oct-23 18:37 35.111584 -118.346374 77 6258ft 81kts
24-Oct-23 18:38 35.117470 -118.335086 22 6471ft 83kts
24-Oct-23 18:39 35.118630 -118.321295 129 6623ft 96kts
24-Oct-23 18:40 35.104253 -118.290979 125 6984ft 114kts
24-Oct-23 18:41 35.085295 -118.258134 117 6180ft 108kts
24-Oct-23 18:42 35.091550 -118.221717 63 5566ft 107kts
24-Oct-23 18:43 35.104853 -118.187697 68 5010ft 113kts
24-Oct-23 18:44 35.093475 -118.159544 152 4024ft 100kts
24-Oct-23 18:45 35.071808 -118.141003 128 3459ft 87kts
24-Oct-23 18:46 35.055776 -118.120241 138 3536ft 84kts
24-Oct-23 18:47 35.037646 -118.111203 251 3502ft 82kts
24-Oct-23 18:48 35.047381 -118.134150 316 2705ft 67kts
24-Oct-23 18:49 35.056980 -118.145861 313 2747ft 31kts
24-Oct-23 18:50 35.057595 -118.147842 268 2749ft 0kts
24-Oct-23 18:51 35.057595 -118.147842 268 2749ft 0kts
24-Oct-23 18:52 35.057595 -118.147842 268 2749ft 0kts
24-Oct-23 18:53 35.057595 -118.147842 268 2749ft 0kts

Navigation Log

Ident Type
Flight plan parsing failed, navigation log unavailable